ilmateenistus.ee keskkonnaagentuur.ee
EETN Tallinn
FTEO31 EETN 042300
TAF EETN 042330Z 0500/0524 VRB02KT CAVOK PROB40 TEMPO 0500/0505 3000
    BR SCT003 BECMG 0506/0508 22012KT PROB40 TEMPO 0511/0517 25018G30KT
    TEMPO 0512/0515 BKN014 TEMPO 0515/0520 2000 SHSN BKN010 SCT015CB
    BECMG 0517/0519 28015KT=

METAR EETN 050320Z 24002KT CAVOK M10/M11 Q1033=
Tallinn
EEKA Kärdla
METAR EEKA 050250Z NIL=
Kärdla
EEKE Kuressaare
METAR EEKE 050320Z AUTO 29003KT 9999NDV NCD M11/M12 Q1035=
Kuressaare
EEPU Pärnu
METAR EEPU 050320Z AUTO 22002KT 9999 NCD M10/M11 Q1034=
Pärnu
EETU Tartu
METAR EETU 050320Z AUTO 32006KT 280V350 9999 OVC007/// M06/M08 Q1033=
Tartu
EEEI Ämari
METAR EEEI 050250Z AUTO 18003KT CAVOK M12/M13 Q1034=
Ämari
Kihnu
Ruhnu
Ridali
Viljandi